Portada
METAR-TAF:

METAR-TAF

Aeroports :

Waskaganish, Quebec, Canadà

latitud: 51-29N, longitud: 078-45W, altitud: 23 m

Observació

L'informe es va fer fa 45 minuts, a les 14:00 UTC
Vent 7 kt del Sud-Est
Temperatura 15°C
Humitat 67%
Pressió 1022 hPa
Visibilitat: 24.1 km
Núvols disperses a una alçada de 9400 ft
Cel ennuvolat a una alçada de 20000 ft

METAR: CYKQ 171400Z 13007KT 15SM SCT094 BKN200 15/09 A3018 RMK AC4CI2 SLP223

Hora: 10:45 (14:45 UTC)

Pronòstic

L'informe es va fer fa 7 minuts, a les 14:38 UTC
Pronòstic vàlid del 16 a les 15 UTC al 16 a les 21 UTC
Vent 5 kt del Est/Sud-Est
Visibilitat: 10 km
Cel clar
Evolucionant progressivament
l' 16 a les 15 UTC al 16 a les 17 UTC
Vent 8 kt del Sud/Sud-Oest

TAF: CYKQ 161438Z 1615/1621 12005KT P6SM SKC BECMG 1615/1617 20008KT RMK NXT FCST WILL BE ISSUED AT 171445Z

Observacions i pronòstics meteorològics de més de 4000 aeroports (METAR i TAF).

Les estacions disponibles són els punts grocs i vermells al mapa.

Posi el ratolí al punt desitjat per veure el nom de l'estació.

Feu clic per veure les observacions i els pronòstics meteorològics.

Per canviar el mapa: feu clic els botons verds amb una creu de color negre per apropar; al botó verd amb un guió per allunyar la imatge; o en les fletxes verdes per a mapes adjacents.


METAR-TAF: